Time;durP1;ratioP1;P1;durP2;ratioP2;P2;SDS_P1;SDS_P2;PMS_P1;PMS_P2;Temp;Humidity;BMP_temperature;BMP_pressure;BME280_temperature;BME280_humidity;BME280_pressure;Samples;Min_cycle;Max_cycle;Signal;HPM_P1;HPM_P2
2022/09/26 00:00:23;;;;;;;3.53;2.75;;;;;;;7.97;100.00;92619.53;2122170;27;20034;-73
2022/09/26 00:01:27;;;;;;;4.38;2.67;;;;;;;7.94;100.00;92612.34;2122652;27;20023;-73
2022/09/26 00:02:29;;;;;;;3.03;2.50;;;;;;;7.95;100.00;92614.63;2122538;27;20123;-73
2022/09/26 00:03:30;;;;;;;2.85;2.33;;;;;;;7.96;100.00;92615.38;2122331;27;20388;-73
2022/09/26 00:04:31;;;;;;;3.20;2.63;;;;;;;7.94;100.00;92613.09;2113991;27;20037;-75
2022/09/26 00:05:33;;;;;;;3.10;2.80;;;;;;;7.98;100.00;92611.13;2113201;28;20622;-74
2022/09/26 00:06:33;;;;;;;3.15;2.78;;;;;;;7.93;100.00;92616.94;2121777;27;20051;-74
2022/09/26 00:07:34;;;;;;;2.92;2.67;;;;;;;7.90;100.00;92617.75;2122684;27;20027;-74
2022/09/26 00:08:36;;;;;;;3.25;2.90;;;;;;;7.93;100.00;92616.19;2120604;27;20053;-73
2022/09/26 00:09:37;;;;;;;3.45;2.80;;;;;;;7.91;100.00;92605.94;2122789;27;20061;-76
2022/09/26 00:10:38;;;;;;;3.80;3.10;;;;;;;7.93;100.00;92608.94;2121947;27;20018;-74
2022/09/26 00:11:39;;;;;;;3.42;3.05;;;;;;;8.00;100.00;92605.41;2118710;27;20031;-74
2022/09/26 00:12:40;;;;;;;3.78;3.35;;;;;;;8.14;100.00;92599.03;2122345;27;20133;-73
2022/09/26 00:13:41;;;;;;;3.67;3.30;;;;;;;8.09;100.00;92602.94;2122623;27;20441;-73
2022/09/26 00:14:42;;;;;;;4.32;3.15;;;;;;;8.08;100.00;92604.09;2122845;27;20828;-72
2022/09/26 00:15:46;;;;;;;4.63;3.40;;;;;;;8.17;100.00;92604.28;2129740;27;20042;-73
2022/09/26 00:16:47;;;;;;;6.32;3.45;;;;;;;8.19;100.00;92609.94;2121624;27;20027;-73
2022/09/26 00:17:49;;;;;;;4.35;3.08;;;;;;;8.13;100.00;92605.53;2121908;27;20031;-73
2022/09/26 00:18:53;;;;;;;3.85;2.90;;;;;;;8.10;100.00;92603.69;2131182;27;20027;-73
2022/09/26 00:19:54;;;;;;;5.40;3.40;;;;;;;8.03;100.00;92602.66;2131296;27;20119;-73
2022/09/26 00:21:11;;;;;;;3.72;3.42;;;;;;;8.00;100.00;92602.75;2131224;27;20030;-74
2022/09/26 00:22:12;;;;;;;3.53;2.90;;;;;;;7.96;100.00;92602.81;2128056;27;20167;-73
2022/09/26 00:23:13;;;;;;;4.65;3.38;;;;;;;7.91;100.00;92597.22;2130743;27;20512;-72
2022/09/26 00:24:14;;;;;;;3.58;2.97;;;;;;;7.86;100.00;92592.34;2122019;27;20030;-72
2022/09/26 00:25:15;;;;;;;3.45;3.13;;;;;;;7.79;100.00;92595.94;2122206;27;20117;-73
2022/09/26 00:26:18;;;;;;;3.67;3.10;;;;;;;7.78;100.00;92600.50;2130628;27;20030;-74
2022/09/26 00:27:19;;;;;;;5.32;3.13;;;;;;;7.83;100.00;92597.34;2131452;27;20126;-73
2022/09/26 00:28:20;;;;;;;4.40;3.05;;;;;;;7.76;100.00;92596.75;2122088;27;20023;-74
2022/09/26 00:29:21;;;;;;;4.20;3.15;;;;;;;7.66;100.00;92605.69;2122246;27;20054;-74
2022/09/26 00:30:22;;;;;;;3.35;2.83;;;;;;;7.67;100.00;92591.97;2130804;27;20019;-76
2022/09/26 00:31:29;;;;;;;3.53;3.15;;;;;;;7.65;100.00;92601.53;2120851;27;20595;-73
2022/09/26 00:32:30;;;;;;;3.53;2.75;;;;;;;7.54;100.00;92602.47;2120220;27;20050;-73
2022/09/26 00:33:31;;;;;;;3.20;2.90;;;;;;;7.49;100.00;92600.28;2131244;27;20026;-75
2022/09/26 00:34:32;;;;;;;3.45;2.88;;;;;;;7.48;100.00;92598.78;2131198;27;20019;-74
2022/09/26 00:35:33;;;;;;;3.10;2.80;;;;;;;7.44;100.00;92602.66;2130880;27;20030;-76
2022/09/26 00:36:34;;;;;;;4.70;3.10;;;;;;;7.45;100.00;92596.94;2130092;27;20033;-74
2022/09/26 00:37:35;;;;;;;3.40;3.10;;;;;;;7.38;100.00;92593.69;2131320;27;20037;-75
2022/09/26 00:38:36;;;;;;;3.72;2.90;;;;;;;7.31;100.00;92600.59;2128837;27;20034;-74
2022/09/26 00:39:37;;;;;;;3.53;2.70;;;;;;;7.27;100.00;92596.50;2131100;27;20121;-74
2022/09/26 00:40:41;;;;;;;5.10;2.95;;;;;;;7.38;100.00;92601.66;2131211;27;20023;-74
2022/09/26 00:41:43;;;;;;;2.40;2.20;;;;;;;7.36;100.00;92599.38;2130271;27;20520;-75
2022/09/26 00:42:44;;;;;;;4.13;2.80;;;;;;;7.32;100.00;92596.03;2130718;27;20038;-74
2022/09/26 00:43:48;;;;;;;5.35;3.03;;;;;;;7.26;100.00;92597.66;2131280;27;20030;-74
2022/09/26 00:44:55;;;;;;;3.60;2.60;;;;;;;7.27;100.00;92599.16;2131066;27;20114;-74
2022/09/26 00:46:02;;;;;;;4.78;2.35;;;;;;;7.18;100.00;92597.03;2131200;27;20053;-74
2022/09/26 00:47:06;;;;;;;2.78;2.40;;;;;;;7.06;100.00;92597.63;2131228;27;20460;-74
2022/09/26 00:48:09;;;;;;;2.83;2.53;;;;;;;7.06;100.00;92589.66;2117504;27;20121;-74
2022/09/26 00:49:32;;;;;;;3.70;2.90;;;;;;;7.02;100.00;92589.72;2122175;27;20031;-74
2022/09/26 00:50:40;;;;;;;6.13;2.47;;;;;;;6.95;100.00;92589.84;2131287;27;20022;-74
2022/09/26 00:51:47;;;;;;;3.17;2.13;;;;;;;6.95;100.00;92584.53;2127578;27;20022;-74
2022/09/26 00:53:01;;;;;;;2.28;2.08;;;;;;;6.88;100.00;92583.88;2130943;27;20113;-75
2022/09/26 00:54:04;;;;;;;4.35;3.05;;;;;;;6.81;100.00;92584.78;2130847;27;20101;-74
2022/09/26 00:55:07;;;;;;;7.20;3.30;;;;;;;6.77;100.00;92582.16;2130615;27;20046;-74
2022/09/26 00:56:19;;;;;;;2.50;2.30;;;;;;;6.73;100.00;92586.03;2126386;27;20058;-75
2022/09/26 00:57:36;;;;;;;5.00;2.50;;;;;;;6.65;100.00;92584.63;2130860;27;20465;-76
2022/09/26 00:58:53;;;;;;;3.00;2.10;;;;;;;6.53;100.00;92589.34;2127019;27;20029;-76
2022/09/26 01:00:00;;;;;;;3.40;2.42;;;;;;;6.48;100.00;92595.13;2130453;27;20073;-75
2022/09/26 01:01:01;;;;;;;2.20;2.00;;;;;;;6.55;100.00;92584.41;2130748;27;20019;-75
2022/09/26 01:02:04;;;;;;;3.47;2.60;;;;;;;6.54;100.00;92577.59;2130779;27;20536;-74
2022/09/26 01:03:05;;;;;;;4.13;2.08;;;;;;;6.56;100.00;92577.94;2130800;27;20019;-76
2022/09/26 01:04:08;;;;;;;6.32;2.60;;;;;;;6.54;100.00;92574.94;2126171;27;20062;-75
2022/09/26 01:05:13;;;;;;;6.35;2.45;;;;;;;6.46;100.00;92580.75;2121692;27;20054;-75
2022/09/26 01:06:16;;;;;;;2.72;2.30;;;;;;;6.43;100.00;92573.59;2122601;27;20038;-75
2022/09/26 01:07:23;;;;;;;5.05;2.88;;;;;;;6.40;100.00;92569.81;2130429;27;20029;-75
2022/09/26 01:08:31;;;;;;;6.97;2.70;;;;;;;6.44;100.00;92570.53;2130338;27;20045;-75
2022/09/26 01:09:32;;;;;;;2.90;2.60;;;;;;;6.45;100.00;92573.94;2114089;27;20020;-76
2022/09/26 01:10:35;;;;;;;3.20;2.20;;;;;;;6.39;100.00;92565.69;2105529;28;20062;-75
2022/09/26 01:11:39;;;;;;;3.80;2.35;;;;;;;6.45;100.00;92572.06;2121624;27;20023;-75
2022/09/26 01:12:41;;;;;;;3.90;2.42;;;;;;;6.38;100.00;92568.75;2130253;27;20095;-75
2022/09/26 01:13:42;;;;;;;4.45;2.38;;;;;;;6.43;100.00;92570.94;2130584;27;20037;-74
2022/09/26 01:14:45;;;;;;;3.25;2.65;;;;;;;6.40;100.00;92561.88;2121719;27;20136;-74
2022/09/26 01:15:46;;;;;;;3.80;2.13;;;;;;;6.50;100.00;92568.19;2121937;27;20113;-76
2022/09/26 01:16:52;;;;;;;3.55;2.65;;;;;;;6.42;100.00;92566.78;2130175;27;20022;-76
2022/09/26 01:17:54;;;;;;;5.53;2.20;;;;;;;6.48;100.00;92565.91;2130732;27;20030;-75
2022/09/26 01:18:55;;;;;;;2.80;2.28;;;;;;;6.50;100.00;92565.53;2130663;27;20065;-74
2022/09/26 01:20:20;;;;;;;3.38;2.40;;;;;;;6.47;100.00;92564.41;2130954;27;20030;-74
2022/09/26 01:21:46;;;;;;;4.40;2.60;;;;;;;6.50;100.00;92576.91;2129020;27;20025;-75
2022/09/26 01:23:14;;;;;;;4.32;2.63;;;;;;;6.48;100.00;92568.56;2128451;27;20019;-74
2022/09/26 01:24:27;;;;;;;3.05;2.65;;;;;;;6.47;100.00;92561.03;2128089;27;20524;-75
2022/09/26 01:25:46;;;;;;;4.03;2.53;;;;;;;6.50;100.00;92553.00;2130573;27;20058;-75
2022/09/26 01:27:12;;;;;;;3.15;2.72;;;;;;;6.53;100.00;92560.16;2128320;27;20022;-74
2022/09/26 01:28:31;;;;;;;5.47;2.78;;;;;;;6.51;100.00;92556.41;2120998;27;20039;-75
2022/09/26 01:29:51;;;;;;;3.17;2.65;;;;;;;6.53;100.00;92560.16;2124428;27;20035;-74
2022/09/26 01:31:10;;;;;;;3.25;2.95;;;;;;;6.55;100.00;92555.19;2128504;27;20038;-73
2022/09/26 01:32:48;;;;;;;3.67;2.92;;;;;;;6.60;100.00;92553.97;2127152;27;20038;-73
2022/09/26 01:34:20;;;;;;;4.00;2.60;;;;;;;6.59;100.00;92552.50;2128605;27;20360;-74
2022/09/26 01:35:36;;;;;;;8.15;2.92;;;;;;;6.59;100.00;92547.19;2130769;27;20030;-74
2022/09/26 01:37:00;;;;;;;8.15;3.13;;;;;;;6.59;100.00;92560.47;2126668;27;20026;-74
2022/09/26 01:38:07;;;;;;;4.43;3.38;;;;;;;6.62;100.00;92558.88;2129011;27;20834;-73
2022/09/26 01:39:43;;;;;;;5.90;3.00;;;;;;;6.66;100.00;92554.25;2130435;27;20031;-74
2022/09/26 01:41:11;;;;;;;4.72;2.90;;;;;;;6.65;100.00;92555.44;2127545;27;20026;-76
2022/09/26 01:42:48;;;;;;;9.25;3.35;;;;;;;6.69;100.00;92548.16;2123292;27;20103;-75
2022/09/26 01:44:03;;;;;;;7.70;2.97;;;;;;;6.72;100.00;92553.41;2129581;27;20125;-74
2022/09/26 01:45:12;;;;;;;4.70;2.70;;;;;;;6.71;100.00;92549.25;2130614;27;20019;-76
2022/09/26 01:46:34;;;;;;;2.78;2.42;;;;;;;6.79;100.00;92542.66;2118467;27;20559;-76
2022/09/26 01:47:43;;;;;;;3.35;2.95;;;;;;;6.77;100.00;92546.88;2120506;27;20083;-76
2022/09/26 01:48:50;;;;;;;9.48;3.50;;;;;;;6.82;100.00;92547.16;2129940;27;20031;-76
2022/09/26 01:49:59;;;;;;;5.35;3.70;;;;;;;6.88;100.00;92544.03;2130133;27;20023;-74
2022/09/26 01:51:08;;;;;;;3.70;3.22;;;;;;;6.91;100.00;92546.66;2130517;27;20043;-75
2022/09/26 01:52:19;;;;;;;4.90;2.90;;;;;;;6.91;100.00;92553.88;2130810;27;20033;-76
2022/09/26 01:53:23;;;;;;;3.15;2.70;;;;;;;6.92;100.00;92547.38;2121042;27;20035;-75
2022/09/26 01:54:30;;;;;;;3.70;3.03;;;;;;;6.94;100.00;92547.75;2121877;27;20027;-74
2022/09/26 01:55:49;;;;;;;3.10;2.80;;;;;;;6.91;100.00;92541.31;2121010;27;20054;-74
2022/09/26 01:56:53;;;;;;;3.40;3.10;;;;;;;6.96;100.00;92546.16;2123904;27;20289;-75
2022/09/26 01:58:09;;;;;;;5.55;3.00;;;;;;;7.00;100.00;92541.53;2130617;27;20035;-75
2022/09/26 01:59:19;;;;;;;5.40;2.47;;;;;;;7.00;100.00;92546.13;2127528;27;20026;-74
2022/09/26 02:00:20;;;;;;;;;;;;;;;7.09;100.00;92543.66;2131380;27;20034;-75
2022/09/26 02:01:24;;;;;;;3.72;2.67;;;;;;;7.14;100.00;92543.19;2130234;27;19910;-74
2022/09/26 02:02:30;;;;;;;6.95;2.65;;;;;;;7.12;100.00;92544.78;2130134;27;20050;-75
2022/09/26 02:03:40;;;;;;;6.75;3.15;;;;;;;7.08;100.00;92542.19;2130678;27;20104;-74
2022/09/26 02:04:44;;;;;;;3.17;2.85;;;;;;;7.13;100.00;92538.28;2117402;27;20030;-75
2022/09/26 02:05:54;;;;;;;6.70;2.72;;;;;;;7.15;100.00;92546.59;2122960;27;20031;-74
2022/09/26 02:07:32;;;;;;;4.13;2.40;;;;;;;7.22;100.00;92539.25;2130273;27;20050;-74
2022/09/26 02:08:41;;;;;;;3.90;2.15;;;;;;;7.30;100.00;92537.97;2095353;27;20773;-74
2022/09/26 02:09:46;;;;;;;2.75;2.30;;;;;;;7.29;100.00;92535.72;2126819;27;20062;-74
2022/09/26 02:11:01;;;;;;;3.78;2.38;;;;;;;7.32;100.00;92538.28;2130450;27;20025;-75
2022/09/26 02:12:05;;;;;;;3.80;2.75;;;;;;;7.30;100.00;92539.88;2130491;27;20038;-76
2022/09/26 02:13:13;;;;;;;5.55;2.40;;;;;;;7.34;100.00;92537.91;2126158;27;20075;-76
2022/09/26 02:15:42;;;;;;;;;;;;;;;7.25;100.00;92535.03;2137386;27;20618;-71
2022/09/26 02:16:54;;;;;;;2.65;2.20;;;;;;;7.29;100.00;92535.72;2129468;27;19953;-73
2022/09/26 02:18:02;;;;;;;2.75;2.55;;;;;;;7.32;100.00;92537.56;2129408;27;20507;-72
2022/09/26 02:19:24;;;;;;;3.20;2.60;;;;;;;7.24;100.00;92528.97;2129463;27;20035;-72
2022/09/26 02:20:31;;;;;;;2.47;2.28;;;;;;;7.31;100.00;92534.16;2128224;27;20030;-70
2022/09/26 02:21:50;;;;;;;2.95;2.35;;;;;;;7.34;100.00;92532.59;2129060;27;20038;-72
2022/09/26 02:22:51;;;;;;;5.07;2.75;;;;;;;7.36;100.00;92524.94;2117730;28;20024;-71
2022/09/26 02:23:53;;;;;;;4.30;2.53;;;;;;;7.32;100.00;92526.91;2111653;28;20107;-73
2022/09/26 02:24:54;;;;;;;4.00;2.70;;;;;;;7.35;100.00;92520.78;2120214;27;20045;-72
2022/09/26 02:25:56;;;;;;;3.05;2.70;;;;;;;7.34;100.00;92524.63;2129552;27;20039;-73
2022/09/26 02:26:57;;;;;;;3.30;2.25;;;;;;;7.37;100.00;92523.78;2129282;27;20031;-71
2022/09/26 02:27:59;;;;;;;2.72;2.38;;;;;;;7.33;100.00;92523.09;2120124;28;20085;-72
2022/09/26 02:29:00;;;;;;;2.60;2.40;;;;;;;7.33;100.00;92515.13;2119800;27;20537;-73
2022/09/26 02:30:03;;;;;;;6.05;2.58;;;;;;;7.39;100.00;92516.16;2128656;27;20027;-71
2022/09/26 02:31:07;;;;;;;5.97;3.10;;;;;;;7.42;100.00;92523.31;2129524;27;20029;-74
2022/09/26 02:32:14;;;;;;;3.78;2.45;;;;;;;7.43;100.00;92516.09;2125426;27;20376;-73
2022/09/26 02:33:15;;;;;;;2.42;2.05;;;;;;;7.47;100.00;92517.53;2129088;27;20030;-71
2022/09/26 02:34:16;;;;;;;2.38;1.90;;;;;;;7.45;100.00;92519.06;2129211;27;20054;-71
2022/09/26 02:36:38;;;;;;;2.55;2.30;;;;;;;7.49;100.00;92517.09;2124919;27;20035;-71
2022/09/26 02:37:39;;;;;;;2.70;2.50;;;;;;;7.48;100.00;92519.00;2129177;27;20031;-73
2022/09/26 02:38:40;;;;;;;5.10;2.15;;;;;;;7.50;100.00;92510.63;2128824;27;20337;-71
2022/09/26 02:39:42;;;;;;;2.38;2.10;;;;;;;7.51;100.00;92512.88;2129144;27;20022;-71
2022/09/26 02:40:56;;;;;;;3.22;2.30;;;;;;;7.52;100.00;92517.03;2128245;27;20030;-72
2022/09/26 02:42:03;;;;;;;2.47;2.28;;;;;;;7.52;100.00;92517.03;2129112;27;20419;-75
2022/09/26 02:43:27;;;;;;;6.20;2.35;;;;;;;7.50;100.00;92511.38;2128988;27;20023;-71
2022/09/26 02:44:51;;;;;;;4.03;2.50;;;;;;;7.52;100.00;92514.38;2127542;27;20555;-71
2022/09/26 02:46:18;;;;;;;2.50;2.30;;;;;;;7.49;100.00;92519.75;2116890;28;20059;-72
2022/09/26 02:47:56;;;;;;;2.38;2.17;;;;;;;7.48;100.00;92516.34;2112179;27;20050;-72
2022/09/26 02:49:23;;;;;;;5.45;2.35;;;;;;;7.57;100.00;92513.16;2118820;28;20114;-70
2022/09/26 02:50:52;;;;;;;3.42;2.05;;;;;;;7.54;100.00;92517.34;2112221;27;20116;-73
2022/09/26 02:52:34;;;;;;;2.67;2.17;;;;;;;7.61;100.00;92513.06;2127438;27;20071;-70
2022/09/26 02:53:41;;;;;;;2.13;2.03;;;;;;;7.64;100.00;92515.66;2119172;28;20400;-71
2022/09/26 02:54:57;;;;;;;3.33;2.25;;;;;;;7.66;100.00;92513.34;2117262;27;20610;-73
2022/09/26 02:56:16;;;;;;;5.60;2.15;;;;;;;7.66;100.00;92518.66;2129091;27;20038;-72
2022/09/26 02:57:27;;;;;;;4.85;2.10;;;;;;;7.65;100.00;92514.50;2126570;27;20030;-72
2022/09/26 02:59:00;;;;;;;2.30;2.10;;;;;;;7.70;100.00;92507.94;2128912;27;20023;-74
2022/09/26 03:00:09;;;;;;;3.47;2.15;;;;;;;7.75;100.00;92510.13;2127795;27;20018;-73
2022/09/26 03:01:23;;;;;;;5.57;2.35;;;;;;;7.74;100.00;92503.31;2124905;27;20015;-70
2022/09/26 03:02:37;;;;;;;2.95;2.30;;;;;;;7.76;100.00;92503.63;2126315;27;20032;-70
2022/09/26 03:03:46;;;;;;;7.07;2.20;;;;;;;7.75;100.00;92508.19;2125066;27;20369;-72
2022/09/26 03:05:06;;;;;;;5.75;2.95;;;;;;;7.78;100.00;92503.97;2128496;27;20030;-70
2022/09/26 03:06:14;;;;;;;2.70;2.28;;;;;;;7.79;100.00;92497.50;2124587;27;20473;-71
2022/09/26 03:07:41;;;;;;;4.70;2.33;;;;;;;7.82;100.00;92494.75;2129035;27;20027;-72
2022/09/26 03:08:46;;;;;;;3.03;2.50;;;;;;;7.81;100.00;92501.25;2126202;27;20031;-70
2022/09/26 03:09:50;;;;;;;5.03;3.05;;;;;;;7.82;100.00;92494.75;2122571;27;20481;-73
2022/09/26 03:10:54;;;;;;;3.75;3.10;;;;;;;7.80;100.00;92498.97;2128408;27;20043;-72
2022/09/26 03:11:58;;;;;;;3.25;2.80;;;;;;;7.81;100.00;92500.47;2128518;27;20023;-75
2022/09/26 03:13:05;;;;;;;5.80;3.25;;;;;;;7.79;100.00;92495.56;2128944;27;20065;-73
2022/09/26 03:14:07;;;;;;;3.40;3.10;;;;;;;7.83;100.00;92498.16;2123735;27;20102;-73
2022/09/26 03:15:09;;;;;;;3.42;2.90;;;;;;;7.80;100.00;92502.38;2128600;27;20055;-72
2022/09/26 03:16:13;;;;;;;5.10;3.13;;;;;;;7.86;100.00;92497.34;2128041;27;20031;-71
2022/09/26 03:17:17;;;;;;;4.75;2.90;;;;;;;7.83;100.00;92504.22;2129011;27;20106;-73
2022/09/26 03:18:23;;;;;;;5.43;3.30;;;;;;;7.85;100.00;92493.16;2128905;27;20026;-72
2022/09/26 03:19:45;;;;;;;6.65;3.20;;;;;;;7.88;100.00;92497.66;2129179;27;20037;-74
2022/09/26 03:20:47;;;;;;;5.25;3.28;;;;;;;7.88;100.00;92495.00;2126077;27;20027;-74
2022/09/26 03:21:48;;;;;;;4.03;2.97;;;;;;;7.83;100.00;92503.50;2128477;27;20056;-75
2022/09/26 03:22:50;;;;;;;4.47;3.60;;;;;;;7.83;100.00;92492.84;2119179;28;20528;-72
2022/09/26 03:23:51;;;;;;;3.58;3.13;;;;;;;7.86;100.00;92500.00;2119473;27;20124;-75
2022/09/26 03:24:52;;;;;;;4.63;3.28;;;;;;;7.87;100.00;92496.19;2128856;27;20031;-72
2022/09/26 03:26:03;;;;;;;3.40;3.10;;;;;;;7.80;100.00;92497.06;2128783;27;20056;-75
2022/09/26 03:27:04;;;;;;;;;;;;;;;7.83;100.00;92498.16;2114002;28;20111;-72
2022/09/26 03:28:05;;;;;;;4.53;3.20;;;;;;;7.86;100.00;92493.91;2114217;27;19919;-72
2022/09/26 03:29:06;;;;;;;6.13;3.58;;;;;;;7.83;100.00;92501.56;2119036;27;20469;-75
2022/09/26 03:30:08;;;;;;;5.30;3.42;;;;;;;7.83;100.00;92493.59;2122630;27;20476;-73
2022/09/26 03:31:10;;;;;;;3.45;3.15;;;;;;;7.85;100.00;92498.50;2113576;28;20061;-73
2022/09/26 03:32:11;;;;;;;3.60;3.17;;;;;;;7.85;100.00;92498.50;2113646;27;20063;-75
2022/09/26 03:33:12;;;;;;;4.03;3.10;;;;;;;7.89;100.00;92499.16;2122833;27;20031;-72
2022/09/26 03:34:14;;;;;;;4.78;3.75;;;;;;;7.87;100.00;92493.53;2123158;27;20027;-75
2022/09/26 03:35:15;;;;;;;4.50;3.25;;;;;;;7.83;100.00;92490.19;2122901;27;20031;-72
2022/09/26 03:36:16;;;;;;;3.50;3.00;;;;;;;7.88;100.00;92491.59;2122989;27;20023;-74
2022/09/26 03:37:17;;;;;;;4.47;3.30;;;;;;;7.89;100.00;92482.47;2122205;27;20038;-72
2022/09/26 03:38:18;;;;;;;4.20;3.80;;;;;;;7.88;100.00;92484.38;2122391;27;20034;-71
2022/09/26 03:39:19;;;;;;;7.07;3.75;;;;;;;7.88;100.00;92487.03;2123086;27;20349;-72
2022/09/26 03:40:21;;;;;;;7.85;3.30;;;;;;;7.86;100.00;92484.03;2122985;27;20027;-76
2022/09/26 03:41:23;;;;;;;4.60;3.70;;;;;;;7.86;100.00;92478.72;2123001;27;20035;-72
2022/09/26 03:42:24;;;;;;;5.63;3.42;;;;;;;7.80;100.00;92469.72;2113101;28;20047;-74
2022/09/26 03:43:25;;;;;;;3.75;3.42;;;;;;;7.85;100.00;92474.53;2114120;28;20043;-72
2022/09/26 03:44:26;;;;;;;6.25;3.13;;;;;;;7.85;100.00;92465.81;2122482;27;20043;-73
2022/09/26 03:45:27;;;;;;;6.90;3.30;;;;;;;7.79;100.00;92468.97;2122816;27;20015;-75
2022/09/26 03:46:28;;;;;;;4.03;3.47;;;;;;;7.82;100.00;92464.75;2113955;28;20042;-72
2022/09/26 03:47:30;;;;;;;4.60;3.55;;;;;;;7.73;100.00;92469.88;2113413;28;20020;-74
2022/09/26 03:48:32;;;;;;;4.13;3.72;;;;;;;7.71;100.00;92464.97;2122950;27;20023;-73
2022/09/26 03:49:33;;;;;;;4.05;3.10;;;;;;;7.73;100.00;92464.56;2122892;27;20015;-73
2022/09/26 03:50:34;;;;;;;4.63;3.40;;;;;;;7.74;100.00;92460.75;2123025;27;20368;-72
2022/09/26 03:51:35;;;;;;;3.80;3.47;;;;;;;7.72;100.00;92468.38;2113395;28;20020;-73
2022/09/26 03:52:36;;;;;;;6.88;3.78;;;;;;;7.67;100.00;92458.22;2110076;28;20393;-71
2022/09/26 03:53:39;;;;;;;3.33;3.03;;;;;;;7.71;100.00;92464.22;2120393;27;20047;-72
2022/09/26 03:54:40;;;;;;;3.50;3.10;;;;;;;7.72;100.00;92468.38;2113772;28;20028;-73
2022/09/26 03:55:41;;;;;;;3.80;3.50;;;;;;;7.67;100.00;92460.88;2113741;28;20024;-74
2022/09/26 03:56:44;;;;;;;3.75;3.42;;;;;;;7.71;100.00;92472.94;2123079;27;20031;-71
2022/09/26 03:57:44;;;;;;;4.20;3.80;;;;;;;7.73;100.00;92469.88;2118956;27;20061;-70
2022/09/26 03:58:47;;;;;;;4.30;3.80;;;;;;;7.74;100.00;92463.41;2122940;27;20027;-72
2022/09/26 03:59:48;;;;;;;3.25;2.95;;;;;;;7.76;100.00;92464.47;2113543;28;20076;-71
2022/09/26 04:00:49;;;;;;;3.75;3.10;;;;;;;7.74;100.00;92458.81;2113857;27;20468;-71
2022/09/26 04:01:51;;;;;;;4.72;3.30;;;;;;;7.73;100.00;92456.59;2122675;27;20034;-71
2022/09/26 04:02:52;;;;;;;4.40;3.30;;;;;;;7.69;100.00;92458.56;2120899;27;20027;-70
2022/09/26 04:03:55;;;;;;;3.92;3.53;;;;;;;7.62;100.00;92450.75;2121177;27;20098;-73
2022/09/26 04:04:56;;;;;;;3.38;3.08;;;;;;;7.58;100.00;92456.88;2122785;27;20042;-71
2022/09/26 04:05:57;;;;;;;3.80;3.15;;;;;;;7.60;100.00;92451.16;2123102;27;20030;-71
2022/09/26 04:06:59;;;;;;;4.18;3.17;;;;;;;7.63;100.00;92445.00;2122813;27;20027;-73
2022/09/26 04:08:01;;;;;;;5.63;3.67;;;;;;;7.61;100.00;92452.66;2122615;27;20031;-70
2022/09/26 04:09:03;;;;;;;3.88;3.47;;;;;;;7.60;100.00;92445.09;2118509;27;20023;-71
2022/09/26 04:10:04;;;;;;;7.88;3.50;;;;;;;7.67;100.00;92439.59;2118169;27;20034;-71
2022/09/26 04:11:11;;;;;;;6.03;3.72;;;;;;;7.76;100.00;92442.44;2113294;28;20020;-71
2022/09/26 04:12:12;;;;;;;3.55;3.25;;;;;;;7.76;100.00;92439.78;2111120;27;20036;-71
2022/09/26 04:13:13;;;;;;;4.18;3.20;;;;;;;7.77;100.00;92441.28;2121905;27;20026;-72
2022/09/26 04:14:14;;;;;;;5.07;3.42;;;;;;;7.80;100.00;92443.84;2120315;27;20076;-72
2022/09/26 04:15:15;;;;;;;4.28;2.30;;;;;;;7.81;100.00;92444.59;2122039;27;20354;-71
2022/09/26 04:16:16;;;;;;;4.50;2.10;;;;;;;7.77;100.00;92449.25;2122464;27;20019;-72
2022/09/26 04:17:17;;;;;;;4.10;2.80;;;;;;;7.67;100.00;92439.59;2122767;27;20084;-73
2022/09/26 04:18:18;;;;;;;5.25;2.50;;;;;;;7.64;100.00;92440.41;2113520;28;20092;-74
2022/09/26 04:19:19;;;;;;;3.03;1.85;;;;;;;7.69;100.00;92445.28;2113507;28;20561;-74
2022/09/26 04:20:20;;;;;;;5.22;2.50;;;;;;;7.72;100.00;92441.78;2112738;28;20077;-71
2022/09/26 04:21:21;;;;;;;2.83;2.63;;;;;;;7.66;100.00;92441.53;2104683;28;20024;-72
2022/09/26 04:22:23;;;;;;;2.80;2.40;;;;;;;7.60;100.00;92443.19;2111236;28;20023;-72
2022/09/26 04:23:27;;;;;;;3.03;2.22;;;;;;;7.54;100.00;92442.16;2121092;27;20028;-73
2022/09/26 04:24:27;;;;;;;5.13;2.60;;;;;;;7.49;100.00;92440.00;2121766;27;20080;-73
2022/09/26 04:25:28;;;;;;;3.38;2.28;;;;;;;7.53;100.00;92433.44;2121863;27;20023;-72
2022/09/26 04:26:29;;;;;;;3.10;2.40;;;;;;;7.51;100.00;92430.44;2122216;27;20030;-72
2022/09/26 04:27:30;;;;;;;2.72;2.42;;;;;;;7.47;100.00;92432.44;2122580;27;20035;-73
2022/09/26 04:28:32;;;;;;;3.35;2.35;;;;;;;7.47;100.00;92431.69;2122728;27;20023;-73
2022/09/26 04:29:33;;;;;;;2.67;2.42;;;;;;;7.45;100.00;92432.06;2122680;27;20418;-73
2022/09/26 04:30:36;;;;;;;2.40;2.20;;;;;;;7.38;100.00;92429.59;2121708;27;20035;-73
2022/09/26 04:31:37;;;;;;;2.50;2.30;;;;;;;7.38;100.00;92420.88;2118703;27;20027;-73
2022/09/26 04:32:38;;;;;;;3.72;2.35;;;;;;;7.32;100.00;92425.91;2121938;27;20039;-72
2022/09/26 04:33:39;;;;;;;2.58;1.88;;;;;;;7.32;100.00;92420.59;2122334;27;20031;-73
2022/09/26 04:34:40;;;;;;;4.38;2.10;;;;;;;7.37;100.00;92419.34;2122464;27;20445;-73
2022/09/26 04:35:41;;;;;;;3.30;2.30;;;;;;;7.42;100.00;92424.16;2117906;27;20020;-73
2022/09/26 04:36:42;;;;;;;2.80;2.10;;;;;;;7.48;100.00;92417.22;2122639;27;20039;-72
2022/09/26 04:37:44;;;;;;;2.15;2.05;;;;;;;7.50;100.00;92420.94;2122547;27;20030;-73
2022/09/26 04:38:44;;;;;;;2.88;1.98;;;;;;;7.52;100.00;92420.56;2121183;27;20059;-73
2022/09/26 04:39:46;;;;;;;7.97;2.08;;;;;;;7.40;100.00;92432.56;2122077;27;20031;-74
2022/09/26 04:40:47;;;;;;;5.43;1.95;;;;;;;7.25;100.00;92432.13;2121314;27;20473;-74
2022/09/26 04:41:48;;;;;;;4.65;1.80;;;;;;;7.30;100.00;92430.88;2111277;28;20023;-73
2022/09/26 04:42:49;;;;;;;5.28;2.30;;;;;;;7.24;100.00;92432.50;2108215;28;20023;-72
2022/09/26 04:43:52;;;;;;;6.57;2.10;;;;;;;7.21;100.00;92438.66;2118264;27;20022;-73
2022/09/26 04:44:54;;;;;;;2.50;2.17;;;;;;;7.16;100.00;92433.84;2118908;27;20018;-73
2022/09/26 04:45:55;;;;;;;4.13;2.03;;;;;;;7.13;100.00;92439.97;2118136;27;20027;-72
2022/09/26 04:46:55;;;;;;;3.65;2.58;;;;;;;7.12;100.00;92430.50;2109328;28;20058;-71
2022/09/26 04:47:56;;;;;;;3.42;2.30;;;;;;;7.07;100.00;92431.75;2108882;28;20053;-73
2022/09/26 04:48:59;;;;;;;9.45;3.00;;;;;;;7.09;100.00;92423.34;2119822;27;20068;-71
2022/09/26 04:50:01;;;;;;;3.97;2.67;;;;;;;7.00;100.00;92431.88;2119609;27;20043;-71
2022/09/26 04:51:04;;;;;;;4.65;2.80;;;;;;;6.92;100.00;92425.19;2118815;27;20027;-72
2022/09/26 04:52:05;;;;;;;4.07;2.40;;;;;;;7.02;100.00;92418.91;2119671;27;20031;-71
2022/09/26 04:53:06;;;;;;;6.72;2.50;;;;;;;7.04;100.00;92432.53;2115721;27;20023;-72
2022/09/26 04:54:07;;;;;;;5.88;2.60;;;;;;;7.13;100.00;92424.03;2115037;27;20031;-71
2022/09/26 04:55:08;;;;;;;3.92;2.40;;;;;;;7.08;100.00;92422.59;2119597;27;20023;-72
2022/09/26 04:56:11;;;;;;;4.55;2.72;;;;;;;7.05;100.00;92418.09;2109766;28;20043;-71
2022/09/26 04:57:13;;;;;;;4.05;2.85;;;;;;;7.06;100.00;92419.59;2102180;28;20051;-72
2022/09/26 04:58:15;;;;;;;6.15;2.70;;;;;;;7.08;100.00;92414.63;2110668;27;20027;-72
2022/09/26 04:59:16;;;;;;;7.07;2.67;;;;;;;7.07;100.00;92413.88;2110402;28;20084;-75
2022/09/26 05:00:17;;;;;;;4.93;2.78;;;;;;;7.07;100.00;92411.22;2110054;28;20609;-74
2022/09/26 05:01:19;;;;;;;4.93;3.00;;;;;;;7.11;100.00;92410.38;2119421;27;20526;-72
2022/09/26 05:02:20;;;;;;;4.43;2.92;;;;;;;7.16;100.00;92409.94;2117791;27;20027;-75
2022/09/26 05:03:21;;;;;;;3.47;2.90;;;;;;;7.21;100.00;92412.09;2120115;27;20039;-72
2022/09/26 05:04:22;;;;;;;6.55;3.13;;;;;;;7.24;100.00;92416.56;2119458;27;20153;-74
2022/09/26 05:05:23;;;;;;;8.93;3.10;;;;;;;7.23;100.00;92415.81;2120730;27;20034;-74
2022/09/26 05:06:25;;;;;;;5.90;3.17;;;;;;;7.27;100.00;92419.16;2119530;27;20112;-73
2022/09/26 05:07:28;;;;;;;8.85;3.60;;;;;;;7.24;100.00;92420.00;2111503;28;20035;-72
2022/09/26 05:08:29;;;;;;;6.60;3.15;;;;;;;7.19;100.00;92422.38;2109255;28;20099;-72
2022/09/26 05:09:31;;;;;;;4.45;3.20;;;;;;;7.16;100.00;92421.31;2119580;27;20015;-72
2022/09/26 05:10:32;;;;;;;4.57;3.22;;;;;;;7.13;100.00;92424.03;2120370;27;20026;-72
2022/09/26 05:11:33;;;;;;;5.05;3.22;;;;;;;7.04;100.00;92427.97;2119090;27;20030;-72
2022/09/26 05:12:35;;;;;;;7.20;3.17;;;;;;;7.13;100.00;92424.78;2119587;27;20423;-73
2022/09/26 05:13:37;;;;;;;4.32;3.42;;;;;;;7.05;100.00;92418.84;2112283;27;20034;-74